This is the latest recevied weather packets stored in our database for station/object W2GRK-15. If no packets are shown the sender has not sent any weather packets the latest 10 day(s).
| Time | Temp. | Humidity | Pressure | Rain* | Wind** | Luminosity | Snow |
|---|---|---|---|---|---|---|---|
| 1778000745 | 27.78° C | 40% | 1009.9 hPa | 0 mm | - | 789 W/m² | - |
| 1778000701 | 27.78° C | 40% | 1010.1 hPa | 0 mm | - | 788 W/m² | - |
| 1778000547 | 27.78° C | 39% | 1010.1 hPa | 0 mm | - | 790 W/m² | - |
| 1778000306 | 27.22° C | 41% | 1010.3 hPa | 0 mm | - | 793 W/m² | - |
| 1777999516 | 27.22° C | 42% | 1010.3 hPa | 0 mm | - | 792 W/m² | - |
| 1777999423 | 27.22° C | 41% | 1010.3 hPa | 0 mm | - | 796 W/m² | - |
| 1777998678 | 26.67° C | 43% | 1010.3 hPa | 0 mm | - | 804 W/m² | - |
| 1777998324 | 27.22° C | 42% | 1010.5 hPa | 0 mm | - | 796 W/m² | - |
| 1777997970 | 27.22° C | 42% | 1010.5 hPa | 0 mm | - | 800 W/m² | - |
| 1777997776 | 26.67° C | 44% | 1010.5 hPa | 0 mm | - | 800 W/m² | - |
| 1777997728 | 26.67° C | 43% | 1010.6 hPa | 0 mm | - | 801 W/m² | - |
| 1777997378 | 26.67° C | 42% | 1010.5 hPa | 0 mm | - | 800 W/m² | - |
| 1777997068 | 26.67° C | 44% | 1010.7 hPa | 0 mm | - | 796 W/m² | - |
| 1777996826 | 26.67° C | 45% | 1011 hPa | 0 mm | - | 792 W/m² | - |
| 1777996762 | 26.67° C | 43% | 1010.8 hPa | 0 mm | - | 793 W/m² | - |
| 1777996128 | 26.11° C | 46% | 1011 hPa | 0 mm | - | 785 W/m² | - |
| 1777996003 | 26.11° C | 46% | 1011 hPa | 0 mm | - | 780 W/m² | - |
| 1777995938 | 25.56° C | 44% | 1011.2 hPa | 0 mm | - | 780 W/m² | - |
| 1777995890 | 25.56° C | 45% | 1011.2 hPa | 0 mm | - | 780 W/m² | - |
| 1777995806 | 26.11° C | 46% | 1010.9 hPa | 0 mm | - | 780 W/m² | - |
| 1777995629 | 26.11° C | 47% | 1011.3 hPa | 0 mm | - | 774 W/m² | - |
| 1777995259 | 25.56° C | 48% | 1011.1 hPa | 0 mm | - | 770 W/m² | - |
| 1777994860 | 25° C | 47% | 1011.1 hPa | 0 mm | - | 761 W/m² | - |
| 1777994663 | 25° C | 47% | 1010.9 hPa | 0 mm | - | 755 W/m² | - |
| 1777993036 | 23.89° C | 49% | 1011.4 hPa | 0 mm | - | 687 W/m² | - |
* Rain latest hour (hover to see other rain measurements)
** Current wind speed in m/s (hover to see current wind gust speed)